ΕΜΥ, Εθνική Μετεωρολογική Υπηρεσία - Δελτία Καιρού, Προγνώσεις

ΑΕΡΟΝΑΥΤΙΛΙΑ

GREEK AIRPORTS CODES

LGST 191600Z AUTO 31020KT //// -RA ////// 12/05 Q1020 RE// RMK 0.0MM=

EUROPEAN AIRPORTS CODES

LFPO 191600Z 03012KT 9999 BKN033 07/01 Q1041 NOSIG=